createdAt,value
2023-02-26T00:01:28.778Z,67.67
2023-02-26T00:03:57.904Z,67.35
2023-02-26T00:06:26.311Z,68.12
2023-02-26T00:08:53.816Z,68.17
2023-02-26T00:11:22.365Z,67.90
2023-02-26T00:13:49.341Z,67.66
2023-02-26T00:16:24.948Z,66.52
2023-02-26T00:18:52.130Z,68.23
2023-02-26T00:21:20.187Z,68.03
2023-02-26T00:23:47.049Z,68.05
2023-02-26T00:26:13.583Z,68.21
2023-02-26T00:28:41.032Z,68.06
2023-02-26T00:31:08.382Z,68.32
2023-02-26T00:33:35.361Z,67.96
2023-02-26T00:36:29.333Z,66.11
2023-02-26T00:38:55.889Z,68.36
2023-02-26T00:41:23.028Z,68.10
2023-02-26T00:43:49.807Z,68.84
2023-02-26T00:46:34.741Z,68.57
2023-02-26T00:49:44.918Z,66.39
2023-02-26T00:52:19.248Z,67.78
2023-02-26T00:54:45.825Z,68.48
2023-02-26T00:57:12.256Z,68.22
2023-02-26T00:59:38.984Z,68.17
2023-02-26T01:02:05.479Z,68.46
2023-02-26T01:04:32.300Z,68.59
2023-02-26T01:06:59.076Z,68.73
2023-02-26T01:09:33.943Z,68.52
2023-02-26T01:12:04.439Z,68.86
2023-02-26T01:14:32.618Z,68.76
2023-02-26T01:17:21.188Z,67.27
2023-02-26T01:19:55.623Z,67.92
2023-02-26T01:22:42.561Z,67.14
2023-02-26T01:25:16.268Z,68.70
2023-02-26T01:27:42.964Z,70.05
2023-02-26T01:30:10.290Z,69.95
2023-02-26T01:32:53.321Z,67.96
2023-02-26T01:35:44.187Z,68.56
2023-02-26T01:38:25.810Z,67.81
2023-02-26T01:41:06.996Z,67.25
2023-02-26T01:43:36.472Z,68.31
2023-02-26T01:46:18.303Z,66.78
2023-02-26T01:48:56.659Z,67.13
2023-02-26T01:51:47.260Z,66.70
2023-02-26T01:54:16.309Z,68.67
2023-02-26T01:56:45.809Z,68.30
2023-02-26T01:59:15.893Z,68.00
2023-02-26T02:01:43.215Z,68.67
2023-02-26T02:04:16.028Z,66.94
2023-02-26T02:06:43.358Z,66.01
2023-02-26T02:09:10.591Z,68.61
2023-02-26T02:12:06.129Z,66.72
2023-02-26T02:14:45.831Z,67.38
2023-02-26T02:17:33.115Z,66.52
2023-02-26T02:20:22.815Z,67.67
2023-02-26T02:22:49.214Z,68.79
2023-02-26T02:26:09.354Z,66.33
2023-02-26T02:29:06.516Z,66.86
2023-02-26T02:31:43.872Z,66.64
2023-02-26T02:34:21.365Z,67.53
2023-02-26T02:37:02.550Z,67.67
2023-02-26T02:39:43.375Z,67.22
2023-02-26T02:42:35.462Z,66.88
2023-02-26T02:45:19.414Z,66.70
2023-02-26T02:47:52.478Z,68.05
2023-02-26T02:50:38.269Z,66.34
2023-02-26T02:53:13.987Z,67.56
2023-02-26T02:55:50.056Z,67.06
2023-02-26T02:58:25.325Z,66.87
2023-02-26T03:00:57.941Z,67.70
2023-02-26T03:03:55.163Z,65.98
2023-02-26T03:06:21.750Z,68.54
2023-02-26T03:08:50.084Z,68.59
2023-02-26T03:11:16.745Z,68.55
2023-02-26T03:13:44.579Z,68.55
2023-02-26T03:16:26.541Z,66.88
2023-02-26T03:19:23.351Z,66.14
2023-02-26T03:21:56.501Z,66.76
2023-02-26T03:24:38.357Z,66.67
2023-02-26T03:27:14.414Z,67.92
2023-02-26T03:29:49.540Z,67.36
2023-02-26T03:32:24.910Z,68.13
2023-02-26T03:35:01.497Z,67.54
2023-02-26T03:37:37.736Z,66.79
2023-02-26T03:40:12.021Z,68.10
2023-02-26T03:42:47.683Z,68.73
2023-02-26T03:45:19.172Z,69.03
2023-02-26T03:47:49.515Z,69.21
2023-02-26T03:50:22.112Z,68.04
2023-02-26T03:52:50.874Z,69.29
2023-02-26T03:55:22.164Z,68.74
2023-02-26T03:57:49.949Z,68.99
2023-02-26T04:00:17.860Z,68.73
2023-02-26T04:02:54.508Z,67.23
2023-02-26T04:05:26.449Z,68.01
2023-02-26T04:07:53.573Z,68.87
2023-02-26T04:10:25.295Z,68.23
2023-02-26T04:12:51.756Z,68.95
2023-02-26T04:15:18.459Z,68.77
2023-02-26T04:17:44.973Z,69.03
2023-02-26T04:20:12.004Z,69.25
2023-02-26T04:22:38.653Z,68.95
2023-02-26T04:25:05.698Z,69.13
2023-02-26T04:27:32.148Z,69.01
2023-02-26T04:29:58.574Z,69.22
2023-02-26T04:32:25.178Z,68.91
2023-02-26T04:34:51.772Z,68.32
2023-02-26T04:37:18.280Z,68.71
2023-02-26T04:39:44.759Z,68.71
2023-02-26T04:42:11.259Z,68.99
2023-02-26T04:44:37.786Z,69.21
2023-02-26T04:47:04.315Z,69.09
2023-02-26T04:49:31.390Z,68.63
2023-02-26T04:51:57.834Z,69.04
2023-02-26T04:54:24.497Z,69.02
2023-02-26T04:56:50.949Z,69.21
2023-02-26T04:59:17.401Z,69.00
2023-02-26T05:01:43.972Z,68.80
2023-02-26T05:04:10.658Z,69.58
2023-02-26T05:06:37.278Z,69.19
2023-02-26T05:09:04.342Z,69.02
2023-02-26T05:11:30.907Z,69.13
2023-02-26T05:13:57.415Z,69.09
2023-02-26T05:16:24.180Z,68.67
2023-02-26T05:18:50.883Z,68.80
2023-02-26T05:21:17.460Z,69.09
2023-02-26T05:23:44.053Z,69.26
2023-02-26T05:26:10.697Z,68.99
2023-02-26T05:28:38.121Z,69.24
2023-02-26T05:31:04.976Z,69.33
2023-02-26T05:33:31.569Z,69.82
2023-02-26T05:35:58.166Z,69.28
2023-02-26T05:38:24.717Z,69.38
2023-02-26T05:40:51.269Z,69.23
2023-02-26T05:43:17.736Z,69.54
2023-02-26T05:45:44.193Z,69.67
2023-02-26T05:48:11.218Z,70.19
2023-02-26T05:50:37.696Z,69.63
2023-02-26T05:53:04.129Z,69.38
2023-02-26T05:55:30.629Z,69.84
2023-02-26T05:57:57.179Z,69.69
2023-02-26T06:00:23.677Z,70.11
2023-02-26T06:02:50.164Z,69.64
2023-02-26T06:05:16.743Z,69.77
2023-02-26T06:07:43.277Z,69.61
2023-02-26T06:10:11.027Z,69.65
2023-02-26T06:12:38.439Z,69.93
2023-02-26T06:15:06.175Z,70.11
2023-02-26T06:17:33.110Z,69.88
2023-02-26T06:20:00.057Z,70.33
2023-02-26T06:22:26.591Z,69.80
2023-02-26T06:24:55.034Z,69.93
2023-02-26T06:27:22.590Z,69.84
2023-02-26T06:29:49.155Z,70.14
2023-02-26T06:32:15.660Z,69.63
2023-02-26T06:34:42.454Z,70.25
2023-02-26T06:37:09.012Z,70.38
2023-02-26T06:39:35.592Z,69.60
2023-02-26T06:42:02.149Z,70.42
2023-02-26T06:44:28.802Z,69.82
2023-02-26T06:46:55.233Z,70.11
2023-02-26T06:49:21.738Z,70.04
2023-02-26T06:51:48.328Z,70.09
2023-02-26T06:54:14.939Z,70.32
2023-02-26T06:56:41.415Z,70.52
2023-02-26T06:59:08.016Z,70.66
2023-02-26T07:01:34.471Z,70.25
2023-02-26T07:04:01.064Z,70.33
2023-02-26T07:06:28.236Z,70.23
2023-02-26T07:08:55.686Z,70.37
2023-02-26T07:11:22.833Z,71.11
2023-02-26T07:13:49.445Z,70.54
2023-02-26T07:16:15.945Z,70.43
2023-02-26T07:18:42.547Z,70.93
2023-02-26T07:21:09.174Z,70.81
2023-02-26T07:23:35.683Z,70.66
2023-02-26T07:26:02.415Z,70.90
2023-02-26T07:28:28.891Z,70.68
2023-02-26T07:30:56.421Z,70.75
2023-02-26T07:33:23.176Z,70.83
2023-02-26T07:35:49.751Z,70.75
2023-02-26T07:38:17.584Z,70.72
2023-02-26T07:40:45.713Z,70.94
2023-02-26T07:43:12.720Z,70.71
2023-02-26T07:45:39.175Z,71.43
2023-02-26T07:48:05.732Z,71.24
2023-02-26T07:50:33.630Z,70.93
2023-02-26T07:53:00.356Z,71.14
2023-02-26T07:55:27.721Z,71.21
2023-02-26T07:57:54.511Z,71.20
2023-02-26T08:00:21.459Z,71.54
2023-02-26T08:02:48.075Z,71.30
2023-02-26T08:05:14.640Z,71.60
2023-02-26T08:07:41.252Z,71.71
2023-02-26T08:10:08.484Z,71.28
2023-02-26T08:12:35.088Z,71.74
2023-02-26T08:15:01.591Z,71.28
2023-02-26T08:17:28.279Z,70.92
2023-02-26T08:19:54.774Z,71.55
2023-02-26T08:22:22.038Z,71.37
2023-02-26T08:24:48.679Z,71.74
2023-02-26T08:27:15.162Z,71.49
2023-02-26T08:29:42.798Z,71.12
2023-02-26T08:32:09.412Z,71.34
2023-02-26T08:34:35.997Z,70.95
2023-02-26T08:37:02.553Z,71.46
2023-02-26T08:39:32.963Z,71.43
2023-02-26T08:41:59.404Z,71.29
2023-02-26T08:44:25.936Z,71.13
2023-02-26T08:46:52.502Z,70.78
2023-02-26T08:49:19.140Z,70.41
2023-02-26T08:51:45.631Z,70.84
2023-02-26T08:54:12.173Z,70.69
2023-02-26T08:56:38.925Z,70.46
2023-02-26T08:59:05.757Z,70.73
2023-02-26T09:01:32.524Z,70.40
2023-02-26T09:03:59.108Z,70.54
2023-02-26T09:06:26.034Z,70.44
2023-02-26T09:08:52.680Z,70.25
2023-02-26T09:11:19.130Z,70.09
2023-02-26T09:13:45.655Z,70.29
2023-02-26T09:16:12.197Z,70.26
2023-02-26T09:18:38.820Z,70.17
2023-02-26T09:21:05.608Z,70.60
2023-02-26T09:23:32.134Z,70.21
2023-02-26T09:25:58.708Z,70.04
2023-02-26T09:28:26.505Z,70.09
2023-02-26T09:30:54.821Z,70.17
2023-02-26T09:33:22.452Z,70.41
2023-02-26T09:35:50.486Z,69.48
2023-02-26T09:38:17.632Z,69.32
2023-02-26T09:40:50.978Z,66.66
2023-02-26T09:43:54.578Z,65.56
2023-02-26T09:46:29.979Z,64.78
2023-02-26T09:49:04.252Z,65.96
2023-02-26T09:51:33.319Z,68.57
2023-02-26T09:54:02.626Z,68.73
2023-02-26T09:56:36.864Z,67.18
2023-02-26T09:59:03.507Z,69.08
2023-02-26T10:01:34.058Z,66.98
2023-02-26T10:04:22.940Z,66.09
2023-02-26T10:07:14.436Z,66.16
2023-02-26T10:09:57.286Z,66.75
2023-02-26T10:12:27.764Z,67.97
2023-02-26T10:15:13.268Z,65.03
2023-02-26T10:17:42.503Z,67.64
2023-02-26T10:20:17.429Z,66.53
2023-02-26T10:23:06.442Z,64.78
2023-02-26T10:26:06.498Z,64.63
2023-02-26T10:28:49.090Z,65.00
2023-02-26T10:31:35.546Z,65.72
2023-02-26T10:34:30.514Z,66.02
2023-02-26T10:37:20.787Z,65.67
2023-02-26T10:39:59.581Z,70.00
2023-02-26T10:42:31.925Z,68.48
2023-02-26T10:45:09.588Z,65.41
2023-02-26T10:47:36.137Z,69.27
2023-02-26T10:50:14.563Z,64.00
2023-02-26T10:52:43.570Z,67.06
2023-02-26T10:55:27.695Z,60.08
2023-02-26T10:58:05.302Z,62.72
2023-02-26T11:00:35.240Z,67.11
2023-02-26T11:03:04.568Z,66.70
2023-02-26T11:05:33.180Z,66.29
2023-02-26T11:08:28.608Z,61.21
2023-02-26T11:11:00.953Z,63.79
2023-02-26T11:13:30.600Z,64.52
2023-02-26T11:16:04.076Z,63.41
2023-02-26T11:18:38.413Z,63.95
2023-02-26T11:21:06.857Z,64.62
2023-02-26T11:26:14.638Z,60.86
2023-02-26T11:28:50.061Z,59.95
2023-02-26T11:31:19.820Z,63.45
2023-02-26T11:33:51.758Z,60.86
2023-02-26T11:36:20.776Z,62.70
2023-02-26T11:38:53.796Z,59.40
2023-02-26T11:41:20.220Z,58.89
2023-02-26T11:43:50.617Z,61.40
2023-02-26T11:46:17.155Z,63.90
2023-02-26T11:48:47.478Z,63.21
2023-02-26T11:51:18.858Z,67.10
2023-02-26T11:53:52.357Z,63.69
2023-02-26T11:56:41.969Z,62.37
2023-02-26T11:59:19.559Z,59.54
2023-02-26T12:01:47.262Z,62.30
2023-02-26T12:04:18.776Z,59.86
2023-02-26T12:06:49.052Z,58.74
2023-02-26T12:09:15.599Z,59.61
2023-02-26T12:12:01.607Z,54.15
2023-02-26T12:14:59.091Z,55.75
2023-02-26T12:17:47.438Z,64.19
2023-02-26T12:20:38.370Z,66.36
2023-02-26T12:23:13.591Z,65.78
2023-02-26T12:25:52.334Z,59.63
2023-02-26T12:28:39.419Z,59.40
2023-02-26T12:31:27.109Z,57.92
2023-02-26T12:34:12.243Z,59.83
2023-02-26T12:36:48.831Z,60.89
2023-02-26T12:39:37.978Z,64.03
2023-02-26T12:42:07.606Z,61.56
2023-02-26T12:44:40.026Z,59.04
2023-02-26T12:47:15.825Z,53.15
2023-02-26T12:49:49.236Z,51.59
2023-02-26T12:52:24.593Z,49.92
2023-02-26T12:54:53.979Z,57.58
2023-02-26T12:57:55.255Z,44.55
2023-02-26T13:00:40.394Z,47.86
2023-02-26T13:03:41.171Z,44.70
2023-02-26T13:06:43.747Z,46.90
2023-02-26T13:09:31.099Z,47.31
2023-02-26T13:12:28.501Z,48.16
2023-02-26T13:15:11.478Z,47.78
2023-02-26T13:17:51.619Z,45.88
2023-02-26T13:20:23.955Z,48.93
2023-02-26T13:23:13.870Z,45.88
2023-02-26T13:25:56.243Z,45.56
2023-02-26T13:28:51.608Z,44.86
2023-02-26T13:31:55.685Z,45.03
2023-02-26T13:34:42.288Z,43.24
2023-02-26T13:37:23.166Z,44.15
2023-02-26T13:40:14.664Z,44.72
2023-02-26T13:42:49.742Z,45.15
2023-02-26T13:45:43.316Z,44.50
2023-02-26T13:48:30.798Z,44.95
2023-02-26T13:51:09.576Z,44.31
2023-02-26T13:53:48.873Z,42.13
2023-02-26T13:56:22.405Z,49.54
2023-02-26T13:58:55.351Z,46.27
2023-02-26T14:01:31.783Z,44.26
2023-02-26T14:04:21.456Z,46.55
2023-02-26T14:07:13.128Z,45.60
2023-02-26T14:09:51.726Z,49.21
2023-02-26T14:12:33.931Z,46.37
2023-02-26T14:15:00.553Z,51.29
2023-02-26T14:17:39.489Z,45.95
2023-02-26T14:20:18.400Z,47.10
2023-02-26T14:22:50.584Z,49.14
2023-02-26T14:25:36.137Z,47.44
2023-02-26T14:28:21.274Z,44.67
2023-02-26T14:30:52.283Z,48.91
2023-02-26T14:33:27.787Z,50.18
2023-02-26T14:35:54.720Z,50.32
2023-02-26T14:38:25.745Z,47.41
2023-02-26T14:41:26.004Z,43.98
2023-02-26T14:44:16.002Z,44.62
2023-02-26T14:46:44.398Z,46.15
2023-02-26T14:49:38.416Z,42.07
2023-02-26T14:52:17.009Z,41.20
2023-02-26T14:55:12.270Z,41.55
2023-02-26T14:57:41.596Z,43.80
2023-02-26T15:00:39.120Z,42.01
2023-02-26T15:03:35.869Z,41.36
2023-02-26T15:06:27.170Z,41.00
2023-02-26T15:09:05.573Z,40.85
2023-02-26T15:11:40.848Z,41.89
2023-02-26T15:14:16.470Z,45.37
2023-02-26T15:16:52.182Z,39.62
2023-02-26T15:19:46.564Z,40.40
2023-02-26T15:22:23.185Z,40.97
2023-02-26T15:24:49.955Z,44.58
2023-02-26T15:27:19.478Z,42.70
2023-02-26T15:29:47.869Z,43.93
2023-02-26T15:32:29.088Z,41.62
2023-02-26T15:35:04.622Z,40.24
2023-02-26T15:37:35.248Z,41.62
2023-02-26T15:40:05.503Z,39.65
2023-02-26T15:42:41.465Z,39.57
2023-02-26T15:45:23.247Z,38.82
2023-02-26T15:47:57.480Z,40.41
2023-02-26T15:50:30.921Z,40.49
2023-02-26T15:53:01.669Z,41.46
2023-02-26T15:55:35.382Z,41.21
2023-02-26T15:58:03.868Z,43.90
2023-02-26T16:00:35.345Z,43.20
2023-02-26T16:03:01.937Z,44.94
2023-02-26T16:05:29.461Z,45.19
2023-02-26T16:07:56.887Z,45.95
2023-02-26T16:10:38.145Z,44.15
2023-02-26T16:13:07.097Z,46.65
2023-02-26T16:15:39.692Z,45.33
2023-02-26T16:18:16.118Z,45.30
2023-02-26T16:20:49.323Z,46.19
2023-02-26T16:23:20.804Z,47.40
2023-02-26T16:25:54.491Z,46.32
2023-02-26T16:28:24.275Z,48.48
2023-02-26T16:30:54.581Z,47.94
2023-02-26T16:33:23.868Z,48.67
2023-02-26T16:35:56.999Z,47.82
2023-02-26T16:38:31.528Z,47.72
2023-02-26T16:41:06.361Z,47.94
2023-02-26T16:43:49.731Z,49.42
2023-02-26T16:46:31.254Z,47.82
2023-02-26T16:49:04.998Z,48.85
2023-02-26T16:51:34.724Z,50.36
2023-02-26T16:54:07.455Z,50.11
2023-02-26T16:56:42.225Z,49.32
2023-02-26T16:59:22.559Z,49.52
2023-02-26T17:01:52.596Z,50.14
2023-02-26T17:04:23.452Z,50.92
2023-02-26T17:06:50.207Z,51.77
2023-02-26T17:09:40.191Z,50.15
2023-02-26T17:12:40.126Z,50.21
2023-02-26T17:15:18.241Z,50.91
2023-02-26T17:17:44.869Z,52.53
2023-02-26T17:20:12.633Z,52.72
2023-02-26T17:22:39.615Z,52.85
2023-02-26T17:25:06.363Z,53.22
2023-02-26T17:27:36.743Z,51.90
2023-02-26T17:30:06.030Z,52.83
2023-02-26T17:32:33.217Z,53.62
2023-02-26T17:34:59.942Z,53.58
2023-02-26T17:37:33.358Z,52.13
2023-02-26T17:40:00.176Z,53.68
2023-02-26T17:42:26.916Z,53.94
2023-02-26T17:44:55.164Z,53.79
2023-02-26T17:47:23.894Z,54.04
2023-02-26T17:49:50.420Z,54.23
2023-02-26T17:52:17.225Z,54.47
2023-02-26T17:54:43.729Z,54.49
2023-02-26T17:57:17.255Z,53.49
2023-02-26T17:59:43.786Z,54.91
2023-02-26T18:02:27.148Z,53.15
2023-02-26T18:04:54.124Z,55.13
2023-02-26T18:07:21.798Z,55.26
2023-02-26T18:09:48.411Z,54.91
2023-02-26T18:12:19.880Z,54.83
2023-02-26T18:14:46.598Z,55.13
2023-02-26T18:17:15.208Z,54.94
2023-02-26T18:19:42.812Z,55.20
2023-02-26T18:22:14.012Z,54.45
2023-02-26T18:24:41.460Z,55.34
2023-02-26T18:27:21.703Z,54.00
2023-02-26T18:29:48.338Z,55.82
2023-02-26T18:32:17.306Z,55.62
2023-02-26T18:34:44.245Z,56.49
2023-02-26T18:37:20.345Z,54.79
2023-02-26T18:39:47.041Z,56.83
2023-02-26T18:42:34.024Z,54.32
2023-02-26T18:45:00.545Z,56.72
2023-02-26T18:47:27.102Z,56.86
2023-02-26T18:49:53.764Z,56.46
2023-02-26T18:52:20.478Z,56.29
2023-02-26T18:54:46.991Z,56.51
2023-02-26T18:57:13.729Z,56.64
2023-02-26T18:59:40.309Z,56.54
2023-02-26T19:02:08.039Z,56.46
2023-02-26T19:04:34.942Z,56.63
2023-02-26T19:07:01.637Z,56.59
2023-02-26T19:09:28.749Z,56.66
2023-02-26T19:11:57.227Z,56.47
2023-02-26T19:14:24.655Z,56.83
2023-02-26T19:16:51.154Z,57.09
2023-02-26T19:19:18.243Z,57.12
2023-02-26T19:21:44.845Z,57.04
2023-02-26T19:24:12.792Z,56.89
2023-02-26T19:26:40.326Z,57.05
2023-02-26T19:29:08.632Z,56.78
2023-02-26T19:31:36.635Z,56.71
2023-02-26T19:34:04.212Z,56.83
2023-02-26T19:36:33.775Z,56.84
2023-02-26T19:39:11.878Z,55.31
2023-02-26T19:41:38.458Z,57.10
2023-02-26T19:44:04.913Z,57.50
2023-02-26T19:46:31.502Z,57.53
2023-02-26T19:48:58.066Z,57.64
2023-02-26T19:51:25.139Z,57.52
2023-02-26T19:53:56.058Z,57.75
2023-02-26T19:56:22.484Z,57.83
2023-02-26T19:58:49.153Z,57.83
2023-02-26T20:01:15.710Z,57.62
2023-02-26T20:03:42.227Z,57.95
2023-02-26T20:06:10.150Z,57.68
2023-02-26T20:08:36.672Z,57.78
2023-02-26T20:11:03.288Z,57.83
2023-02-26T20:13:34.536Z,57.80
2023-02-26T20:16:03.683Z,57.54
2023-02-26T20:18:31.327Z,57.92
2023-02-26T20:21:03.341Z,57.19
2023-02-26T20:23:30.540Z,58.23
2023-02-26T20:25:58.202Z,58.12
2023-02-26T20:28:25.472Z,58.26
2023-02-26T20:30:52.378Z,58.44
2023-02-26T20:33:21.100Z,58.17
2023-02-26T20:35:48.106Z,58.56
2023-02-26T20:38:18.803Z,58.46
2023-02-26T20:40:46.834Z,58.39
2023-02-26T20:43:14.075Z,58.81
2023-02-26T20:45:41.943Z,58.67
2023-02-26T20:48:09.348Z,58.81
2023-02-26T20:50:36.456Z,59.04
2023-02-26T20:53:06.612Z,58.39
2023-02-26T20:55:33.887Z,59.23
2023-02-26T20:58:00.457Z,59.34
2023-02-26T21:00:27.099Z,59.60
2023-02-26T21:02:53.727Z,59.85
2023-02-26T21:05:20.783Z,60.16
2023-02-26T21:07:47.900Z,60.26
2023-02-26T21:10:16.248Z,59.94
2023-02-26T21:12:42.881Z,60.28
2023-02-26T21:15:10.660Z,60.14
2023-02-26T21:17:38.756Z,60.05
2023-02-26T21:20:06.801Z,59.58
2023-02-26T21:22:35.445Z,59.51
2023-02-26T21:25:03.046Z,59.58
2023-02-26T21:27:29.533Z,59.41
2023-02-26T21:29:56.063Z,59.59
2023-02-26T21:32:22.585Z,59.62
2023-02-26T21:34:49.180Z,59.51
2023-02-26T21:37:15.698Z,59.81
2023-02-26T21:39:42.296Z,59.61
2023-02-26T21:42:12.028Z,59.28
2023-02-26T21:44:38.598Z,59.79
2023-02-26T21:47:05.097Z,59.99
2023-02-26T21:49:32.010Z,60.15
2023-02-26T21:51:59.929Z,60.00
2023-02-26T21:54:26.585Z,60.19
2023-02-26T21:56:53.527Z,60.24
2023-02-26T21:59:20.417Z,60.42
2023-02-26T22:01:46.977Z,60.32
2023-02-26T22:04:13.570Z,60.38
2023-02-26T22:06:40.069Z,60.38
2023-02-26T22:09:06.749Z,60.46
2023-02-26T22:11:33.278Z,60.75
2023-02-26T22:13:59.768Z,60.51
2023-02-26T22:16:26.825Z,60.54
2023-02-26T22:18:53.427Z,60.84
2023-02-26T22:21:20.286Z,61.09
2023-02-26T22:23:46.832Z,61.34
2023-02-26T22:26:13.312Z,60.87
2023-02-26T22:28:39.891Z,61.35
2023-02-26T22:31:06.672Z,61.13
2023-02-26T22:33:33.411Z,61.31
2023-02-26T22:36:00.324Z,61.14
2023-02-26T22:38:27.102Z,61.16
2023-02-26T22:40:53.825Z,61.48
2023-02-26T22:43:20.612Z,61.17
2023-02-26T22:45:48.591Z,61.21
2023-02-26T22:48:17.030Z,61.30
2023-02-26T22:50:43.680Z,61.28
2023-02-26T22:53:10.283Z,61.24
2023-02-26T22:55:36.894Z,61.53
2023-02-26T22:58:03.606Z,61.42
2023-02-26T23:00:30.292Z,61.37
2023-02-26T23:02:56.791Z,61.63
2023-02-26T23:05:23.484Z,61.86
2023-02-26T23:07:50.059Z,61.68
2023-02-26T23:10:19.667Z,60.96
2023-02-26T23:12:47.090Z,61.41
2023-02-26T23:15:14.130Z,61.67
2023-02-26T23:17:41.885Z,61.53
2023-02-26T23:20:10.518Z,61.49
2023-02-26T23:22:37.655Z,61.63
2023-02-26T23:27:34.497Z,62.03
2023-02-26T23:30:01.016Z,61.95
2023-02-26T23:32:27.634Z,62.18
2023-02-26T23:34:54.164Z,62.20
2023-02-26T23:37:20.765Z,62.33
2023-02-26T23:39:48.949Z,61.86
2023-02-26T23:42:15.606Z,62.20
2023-02-26T23:44:42.122Z,61.91
2023-02-26T23:47:08.520Z,62.06
2023-02-26T23:49:35.145Z,62.05
2023-02-26T23:52:01.764Z,62.02
2023-02-26T23:54:28.387Z,62.50
2023-02-26T23:56:54.896Z,62.18
2023-02-26T23:59:21.409Z,62.65
